Time;durP1;ratioP1;P1;durP2;ratioP2;P2;SDS_P1;SDS_P2;PMS_P1;PMS_P2;Temp;Humidity;BMP_temperature;BMP_pressure;BME280_temperature;BME280_humidity;BME280_pressure;Samples;Min_cycle;Max_cycle;Signal;HPM_P1;HPM_P2
2023/03/16 00:00:17;;;;;;;3.20;2.58;;;;;;;;;;4989199;28;20057;-83
2023/03/16 00:02:44;;;;;;;3.28;2.30;;;;;;;;;;4972973;28;20042;-82
2023/03/16 00:05:13;;;;;;;2.63;2.30;;;;;;;;;;4975242;28;20042;-82
2023/03/16 00:07:41;;;;;;;6.97;2.63;;;;;;;;;;4977335;28;20046;-82
2023/03/16 00:10:11;;;;;;;4.65;3.00;;;;;;;;;;4980520;28;20046;-82
2023/03/16 00:12:38;;;;;;;6.45;3.10;;;;;;;;;;4999319;28;20104;-81
2023/03/16 00:15:06;;;;;;;2.70;2.50;;;;;;;;;;4999786;28;20110;-82
2023/03/16 00:17:34;;;;;;;4.07;3.28;;;;;;;;;;5000052;28;20053;-83
2023/03/16 00:20:05;;;;;;;3.92;2.75;;;;;;;;;;4996327;28;20084;-83
2023/03/16 00:22:33;;;;;;;3.35;2.97;;;;;;;;;;5003829;23;20051;-81
2023/03/16 00:25:11;;;;;;;;;;;;;;;;;;;;;
2023/03/16 00:28:12;;;;;;;3.60;3.30;;;;;;;;;;4976104;28;20174;-84
2023/03/16 00:30:40;;;;;;;4.43;3.88;;;;;;;;;;4980008;28;20288;-82
2023/03/16 00:33:07;;;;;;;4.20;3.60;;;;;;;;;;4998912;28;20046;-83
2023/03/16 00:35:35;;;;;;;4.07;3.10;;;;;;;;;;5003637;28;20508;-82
2023/03/16 00:38:02;;;;;;;3.20;2.80;;;;;;;;;;4988730;28;20053;-82
2023/03/16 00:40:32;;;;;;;2.72;2.53;;;;;;;;;;4991884;28;20079;-81
2023/03/16 00:43:00;;;;;;;3.33;2.80;;;;;;;;;;4993523;28;20764;-82
2023/03/16 00:45:27;;;;;;;5.78;3.22;;;;;;;;;;4971930;28;20476;-82
2023/03/16 00:47:55;;;;;;;4.35;3.25;;;;;;;;;;4988758;28;20108;-82
2023/03/16 00:50:22;;;;;;;5.90;3.50;;;;;;;;;;4986969;28;20053;-81
2023/03/16 00:52:52;;;;;;;3.72;2.97;;;;;;;;;;4968218;28;20050;-81
2023/03/16 00:55:20;;;;;;;3.88;3.10;;;;;;;;;;4986877;28;20051;-81
2023/03/16 00:57:48;;;;;;;5.35;3.40;;;;;;;;;;4973695;28;20109;-81
2023/03/16 01:00:19;;;;;;;3.03;2.70;;;;;;;;;;4986416;28;20057;-82
2023/03/16 01:02:47;;;;;;;4.03;3.20;;;;;;;;;;4972201;28;20077;-81
2023/03/16 01:05:14;;;;;;;4.97;3.25;;;;;;;;;;4985577;28;20043;-81
2023/03/16 01:07:43;;;;;;;7.15;3.30;;;;;;;;;;4964419;28;20046;-81
2023/03/16 01:10:11;;;;;;;3.90;3.13;;;;;;;;;;4974055;28;20057;-81
2023/03/16 01:12:39;;;;;;;6.50;4.60;;;;;;;;;;4976669;28;20512;-81
2023/03/16 01:15:07;;;;;;;3.83;3.42;;;;;;;;;;4994374;28;20348;-82
2023/03/16 01:17:34;;;;;;;5.05;4.20;;;;;;;;;;4978836;28;20142;-81
2023/03/16 01:20:06;;;;;;;7.07;4.30;;;;;;;;;;4993475;28;20467;-81
2023/03/16 01:22:34;;;;;;;3.83;3.53;;;;;;;;;;4991686;28;20042;-81
2023/03/16 01:25:01;;;;;;;5.32;3.83;;;;;;;;;;4982695;28;20053;-81
2023/03/16 01:27:29;;;;;;;4.75;4.28;;;;;;;;;;4980308;28;20050;-82
2023/03/16 01:29:56;;;;;;;4.07;3.67;;;;;;;;;;4979297;28;20405;-81
2023/03/16 01:32:24;;;;;;;4.07;3.67;;;;;;;;;;4981630;28;20053;-81
2023/03/16 01:34:51;;;;;;;6.00;4.28;;;;;;;;;;4983738;28;20423;-82
2023/03/16 01:37:19;;;;;;;4.55;3.55;;;;;;;;;;4986461;28;20054;-81
2023/03/16 01:40:05;;;;;;;5.25;4.30;;;;;;;;;;4998390;28;20042;-80
2023/03/16 01:42:42;;;;;;;6.45;4.25;;;;;;;;;;4980926;28;20042;-81
2023/03/16 01:45:29;;;;;;;4.53;3.30;;;;;;;;;;4987799;28;20030;-81
2023/03/16 01:47:57;;;;;;;5.03;3.97;;;;;;;;;;4990139;28;20042;-82
2023/03/16 01:50:26;;;;;;;5.13;4.18;;;;;;;;;;5005297;28;20058;-82
2023/03/16 01:52:55;;;;;;;7.00;4.18;;;;;;;;;;5000951;28;20050;-81
2023/03/16 01:55:22;;;;;;;5.07;4.28;;;;;;;;;;4981240;28;20813;-81
2023/03/16 01:57:50;;;;;;;5.00;4.43;;;;;;;;;;4978321;28;20042;-81
2023/03/16 02:00:20;;;;;;;4.80;3.92;;;;;;;;;;4981466;28;20069;-82
2023/03/16 02:03:07;;;;;;;5.93;4.57;;;;;;;;;;4979960;28;20058;-81
2023/03/16 02:05:56;;;;;;;7.30;5.03;;;;;;;;;;4980473;28;20047;-81
2023/03/16 02:08:24;;;;;;;10.23;6.05;;;;;;;;;;4996498;28;20121;-81
2023/03/16 02:10:53;;;;;;;5.10;4.05;;;;;;;;;;4980045;28;20053;-81
2023/03/16 02:13:23;;;;;;;7.65;5.70;;;;;;;;;;4991183;28;20047;-82
2023/03/16 02:15:52;;;;;;;8.15;6.53;;;;;;;;;;4978680;28;20400;-82
2023/03/16 02:18:21;;;;;;;6.10;4.70;;;;;;;;;;4979285;28;20061;-81
2023/03/16 02:20:51;;;;;;;8.15;5.60;;;;;;;;;;4981230;28;20069;-81
2023/03/16 02:23:20;;;;;;;8.90;5.60;;;;;;;;;;4996533;28;20050;-81
2023/03/16 02:26:00;;;;;;;5.88;5.28;;;;;;;;;;4974015;28;20050;-82
2023/03/16 02:28:34;;;;;;;7.45;5.72;;;;;;;;;;4978929;28;20035;-81
2023/03/16 02:31:02;;;;;;;6.97;4.75;;;;;;;;;;4977492;28;20070;-82
2023/03/16 02:33:31;;;;;;;4.93;4.40;;;;;;;;;;4978470;28;20046;-81
2023/03/16 02:35:58;;;;;;;6.22;5.30;;;;;;;;;;4993957;28;20072;-81
2023/03/16 02:38:26;;;;;;;7.05;6.05;;;;;;;;;;4993807;28;20054;-81
2023/03/16 02:40:57;;;;;;;7.97;6.10;;;;;;;;;;4979256;28;20071;-82
2023/03/16 02:43:27;;;;;;;9.75;5.93;;;;;;;;;;4998291;28;20405;-81
2023/03/16 02:46:05;;;;;;;8.02;5.50;;;;;;;;;;4976184;28;20042;-81
2023/03/16 02:48:47;;;;;;;7.43;5.80;;;;;;;;;;4995783;28;20046;-81
2023/03/16 02:51:14;;;;;;;8.27;6.03;;;;;;;;;;4994634;28;20062;-82
2023/03/16 02:53:42;;;;;;;6.28;5.30;;;;;;;;;;4978806;28;20049;-81
2023/03/16 02:56:10;;;;;;;7.35;5.88;;;;;;;;;;4998682;28;20610;-81
2023/03/16 02:58:37;;;;;;;8.75;6.05;;;;;;;;;;4986996;28;20527;-81
2023/03/16 03:01:10;;;;;;;6.47;5.68;;;;;;;;;;5003660;28;20054;-81
2023/03/16 03:03:38;;;;;;;6.88;5.93;;;;;;;;;;4990611;28;20078;-81
2023/03/16 03:06:06;;;;;;;11.68;5.68;;;;;;;;;;5000742;28;20057;-81
2023/03/16 03:08:36;;;;;;;6.88;5.93;;;;;;;;;;4985712;28;20050;-81
2023/03/16 03:11:03;;;;;;;5.93;5.10;;;;;;;;;;4977337;28;20042;-81
2023/03/16 03:13:31;;;;;;;11.80;6.20;;;;;;;;;;4974988;28;20411;-81
2023/03/16 03:16:00;;;;;;;8.82;6.13;;;;;;;;;;4968705;28;20453;-81
2023/03/16 03:18:28;;;;;;;5.63;4.85;;;;;;;;;;4971302;28;20042;-81
2023/03/16 03:20:56;;;;;;;7.72;5.22;;;;;;;;;;4985295;28;20065;-81
2023/03/16 03:23:23;;;;;;;5.82;5.18;;;;;;;;;;4972965;28;20050;-81
2023/03/16 03:25:52;;;;;;;6.80;5.25;;;;;;;;;;4985848;28;20571;-81
2023/03/16 03:28:21;;;;;;;7.53;5.90;;;;;;;;;;4979224;28;20047;-81
2023/03/16 03:30:50;;;;;;;8.95;5.22;;;;;;;;;;4970077;28;20034;-81
2023/03/16 03:33:18;;;;;;;12.40;6.05;;;;;;;;;;4976040;28;20408;-81
2023/03/16 03:35:46;;;;;;;7.28;5.00;;;;;;;;;;4987812;28;20500;-81
2023/03/16 03:38:13;;;;;;;6.47;5.20;;;;;;;;;;4972230;28;20050;-81
2023/03/16 03:40:43;;;;;;;6.80;5.13;;;;;;;;;;4969217;28;20060;-81
2023/03/16 03:43:12;;;;;;;6.40;5.10;;;;;;;;;;4970526;28;20050;-81
2023/03/16 03:45:42;;;;;;;6.57;5.47;;;;;;;;;;4969784;28;20133;-81
2023/03/16 03:48:10;;;;;;;8.27;6.55;;;;;;;;;;4972201;28;20077;-81
2023/03/16 03:50:38;;;;;;;7.68;6.38;;;;;;;;;;4974016;28;20038;-80
2023/03/16 03:53:34;;;;;;;7.43;6.50;;;;;;;;;;4975087;28;20137;-81
2023/03/16 03:56:22;;;;;;;9.95;6.50;;;;;;;;;;4975398;28;20058;-81
2023/03/16 03:58:49;;;;;;;9.15;6.70;;;;;;;;;;4974262;28;20046;-81
2023/03/16 04:01:28;;;;;;;5.88;5.25;;;;;;;;;;4978915;28;20492;-81
2023/03/16 04:03:55;;;;;;;6.68;5.97;;;;;;;;;;4987819;28;20066;-81
2023/03/16 04:06:22;;;;;;;10.90;8.38;;;;;;;;;;4967638;28;20097;-81
2023/03/16 04:08:50;;;;;;;8.73;7.00;;;;;;;;;;4975421;28;20116;-81
2023/03/16 04:11:21;;;;;;;10.88;7.30;;;;;;;;;;4972883;28;20077;-81
2023/03/16 04:13:50;;;;;;;7.88;5.75;;;;;;;;;;4976603;28;20415;-81
2023/03/16 04:16:18;;;;;;;8.23;6.43;;;;;;;;;;4974809;28;20046;-81
2023/03/16 04:18:48;;;;;;;7.22;6.30;;;;;;;;;;4970213;28;20118;-81
2023/03/16 04:21:16;;;;;;;9.60;8.10;;;;;;;;;;4974446;28;20046;-81
2023/03/16 04:23:47;;;;;;;8.75;7.20;;;;;;;;;;4969320;28;20097;-81
2023/03/16 04:26:14;;;;;;;10.75;7.05;;;;;;;;;;4973962;28;20129;-81
2023/03/16 04:28:44;;;;;;;7.57;6.78;;;;;;;;;;4974204;28;20100;-81
2023/03/16 04:31:14;;;;;;;7.15;5.93;;;;;;;;;;4978070;28;20114;-81
2023/03/16 04:33:44;;;;;;;8.40;6.35;;;;;;;;;;4983763;28;20038;-81
2023/03/16 04:36:12;;;;;;;9.93;8.20;;;;;;;;;;4998934;28;20042;-81
2023/03/16 04:38:40;;;;;;;9.60;7.22;;;;;;;;;;4981917;28;20077;-81
2023/03/16 04:41:10;;;;;;;8.43;7.00;;;;;;;;;;4974751;28;20042;-81
2023/03/16 04:43:44;;;;;;;8.20;6.57;;;;;;;;;;4974916;28;20053;-81
2023/03/16 04:46:20;;;;;;;9.70;7.47;;;;;;;;;;4973223;28;20053;-81
2023/03/16 04:48:48;;;;;;;30.20;23.88;;;;;;;;;;4982426;28;20129;-81
2023/03/16 04:51:15;;;;;;;15.68;9.15;;;;;;;;;;4985712;23;20050;-85
2023/03/16 04:53:54;;;;;;;9.68;7.07;;;;;;;;;;4956482;28;20572;-82
2023/03/16 04:56:28;;;;;;;8.23;6.43;;;;;;;;;;4956546;28;20047;-83
2023/03/16 04:59:00;;;;;;;9.85;7.68;;;;;;;;;;4965975;28;20058;-84
2023/03/16 05:01:31;;;;;;;10.43;7.97;;;;;;;;;;4966647;28;20145;-83
2023/03/16 05:04:01;;;;;;;8.15;6.80;;;;;;;;;;4963240;28;20075;-83
2023/03/16 05:06:32;;;;;;;8.73;7.38;;;;;;;;;;4955978;28;20498;-85
2023/03/16 05:09:01;;;;;;;14.55;8.15;;;;;;;;;;4960923;28;20312;-83
2023/03/16 05:11:29;;;;;;;22.10;19.83;;;;;;;;;;4965411;28;20054;-82
2023/03/16 05:14:00;;;;;;;8.18;6.32;;;;;;;;;;4966723;28;20047;-83
2023/03/16 05:16:30;;;;;;;7.38;6.53;;;;;;;;;;4960859;28;20102;-83
2023/03/16 05:18:58;;;;;;;9.65;6.57;;;;;;;;;;4963254;28;20497;-84
2023/03/16 05:21:30;;;;;;;14.55;8.38;;;;;;;;;;4965161;28;20106;-84
2023/03/16 05:24:02;;;;;;;10.77;7.70;;;;;;;;;;4968707;28;20046;-83
2023/03/16 05:26:30;;;;;;;8.35;7.22;;;;;;;;;;4968567;28;20461;-83
2023/03/16 05:28:58;;;;;;;10.52;7.88;;;;;;;;;;4971326;28;20043;-82
2023/03/16 05:31:31;;;;;;;11.60;7.47;;;;;;;;;;4966041;28;20043;-85
2023/03/16 05:34:01;;;;;;;;;;;;;;;;;;4966669;28;20082;-83
2023/03/16 05:36:28;;;;;;;8.32;6.30;;;;;;;;;;4965598;28;20030;-85
2023/03/16 05:39:04;;;;;;;8.25;5.57;;;;;;;;;;4963120;28;20051;-83
2023/03/16 05:41:35;;;;;;;8.43;6.95;;;;;;;;;;4975017;28;20082;-84
2023/03/16 05:44:16;;;;;;;90.68;81.20;;;;;;;;;;4976423;28;20042;-82
2023/03/16 05:47:09;;;;;;;7.57;6.03;;;;;;;;;;4971625;28;20076;-83
2023/03/16 05:49:53;;;;;;;10.73;7.13;;;;;;;;;;4981909;28;20070;-86
2023/03/16 05:52:59;;;;;;;8.40;7.22;;;;;;;;;;4975292;28;20672;-82
2023/03/16 05:55:29;;;;;;;7.90;7.10;;;;;;;;;;4962145;28;20067;-84
2023/03/16 05:58:02;;;;;;;30.30;27.33;;;;;;;;;;4965263;28;20137;-84
2023/03/16 06:00:34;;;;;;;8.75;7.10;;;;;;;;;;4971020;28;20097;-84
2023/03/16 06:03:21;;;;;;;41.05;36.55;;;;;;;;;;4976196;28;20112;-85
2023/03/16 06:05:51;;;;;;;8.23;7.18;;;;;;;;;;4974878;28;20043;-83
2023/03/16 06:08:29;;;;;;;10.18;7.38;;;;;;;;;;4969445;28;20043;-85
2023/03/16 06:11:07;;;;;;;10.13;7.50;;;;;;;;;;4970718;28;20047;-84
2023/03/16 06:13:47;;;;;;;13.52;7.53;;;;;;;;;;4964096;28;20054;-84
2023/03/16 06:16:17;;;;;;;6.82;5.82;;;;;;;;;;4962964;28;20138;-83
2023/03/16 06:18:45;;;;;;;7.28;6.13;;;;;;;;;;4968646;28;20539;-83
2023/03/16 06:21:20;;;;;;;7.18;6.07;;;;;;;;;;4962928;28;20057;-82
2023/03/16 06:24:01;;;;;;;7.35;6.32;;;;;;;;;;4962102;28;20106;-84
2023/03/16 06:26:34;;;;;;;8.35;6.70;;;;;;;;;;4962787;28;20061;-86
2023/03/16 06:29:52;;;;;;;9.95;6.88;;;;;;;;;;4960219;28;20044;-81
2023/03/16 06:32:22;;;;;;;8.85;6.75;;;;;;;;;;4973666;28;20082;-84
2023/03/16 06:34:54;;;;;;;8.85;7.53;;;;;;;;;;4945751;28;20652;-85
2023/03/16 06:37:22;;;;;;;7.47;6.38;;;;;;;;;;4955253;28;20062;-84
2023/03/16 06:39:49;;;;;;;9.55;6.95;;;;;;;;;;4957962;28;20077;-83
2023/03/16 06:42:19;;;;;;;10.38;7.13;;;;;;;;;;4967652;28;20051;-83
2023/03/16 06:44:48;;;;;;;10.98;8.55;;;;;;;;;;4964701;28;20449;-84
2023/03/16 06:47:19;;;;;;;8.13;7.30;;;;;;;;;;4967100;28;20142;-84
2023/03/16 06:49:50;;;;;;;;;;;;;;;;;;4968073;28;20073;-85
2023/03/16 06:52:21;;;;;;;7.10;6.03;;;;;;;;;;4962920;28;19925;-84
2023/03/16 06:54:49;;;;;;;9.68;6.70;;;;;;;;;;4970982;28;20040;-83
2023/03/16 06:57:20;;;;;;;25.17;17.85;;;;;;;;;;4963458;28;20062;-85
2023/03/16 06:59:49;;;;;;;8.18;6.72;;;;;;;;;;4962862;28;20527;-84
2023/03/16 07:02:18;;;;;;;8.82;6.65;;;;;;;;;;4964144;28;20047;-82
2023/03/16 07:04:46;;;;;;;9.43;7.03;;;;;;;;;;4961129;28;20133;-83
2023/03/16 07:07:16;;;;;;;6.55;5.95;;;;;;;;;;4962146;28;20051;-85
2023/03/16 07:10:03;;;;;;;7.72;6.22;;;;;;;;;;4960601;28;20145;-85
2023/03/16 07:12:32;;;;;;;10.68;7.38;;;;;;;;;;4961202;28;20088;-84
2023/03/16 07:15:00;;;;;;;7.28;5.63;;;;;;;;;;4961294;28;20484;-84
2023/03/16 07:17:27;;;;;;;6.45;5.72;;;;;;;;;;4961231;28;20050;-84
2023/03/16 07:19:54;;;;;;;5.90;5.18;;;;;;;;;;4960963;28;20047;-84
2023/03/16 07:22:21;;;;;;;6.97;5.60;;;;;;;;;;4964395;28;20061;-86
2023/03/16 07:24:55;;;;;;;6.53;5.85;;;;;;;;;;4981121;28;20051;-83
2023/03/16 07:27:24;;;;;;;6.10;5.45;;;;;;;;;;4981158;28;20047;-86
2023/03/16 07:29:52;;;;;;;9.02;5.72;;;;;;;;;;4984770;28;20055;-84
2023/03/16 07:32:20;;;;;;;6.43;5.80;;;;;;;;;;4984717;28;20047;-86
2023/03/16 07:34:48;;;;;;;6.10;5.35;;;;;;;;;;4965408;28;20078;-83
2023/03/16 07:37:16;;;;;;;7.32;6.00;;;;;;;;;;4961794;28;20047;-85
2023/03/16 07:39:52;;;;;;;6.75;5.53;;;;;;;;;;4956010;28;20109;-84
2023/03/16 07:42:21;;;;;;;6.20;5.55;;;;;;;;;;4956980;28;20126;-84
2023/03/16 07:45:24;;;;;;;6.47;5.88;;;;;;;;;;4935553;28;20053;-85
2023/03/16 07:47:51;;;;;;;7.10;5.70;;;;;;;;;;4962895;28;20442;-83
2023/03/16 07:50:40;;;;;;;9.48;5.00;;;;;;;;;;4964535;28;20035;-83
2023/03/16 07:53:08;;;;;;;5.60;5.03;;;;;;;;;;4963275;28;20051;-84
2023/03/16 07:55:38;;;;;;;5.25;4.75;;;;;;;;;;4959500;28;20087;-82
2023/03/16 07:58:07;;;;;;;7.00;5.53;;;;;;;;;;4970606;28;20047;-84
2023/03/16 08:00:37;;;;;;;6.55;5.40;;;;;;;;;;4955589;28;20099;-83
2023/03/16 08:03:05;;;;;;;7.05;5.22;;;;;;;;;;4960342;28;20071;-84
2023/03/16 08:05:33;;;;;;;5.47;4.97;;;;;;;;;;4960695;28;20047;-83
2023/03/16 08:08:08;;;;;;;5.22;4.78;;;;;;;;;;4965475;28;20500;-84
2023/03/16 08:10:37;;;;;;;5.00;4.47;;;;;;;;;;4959364;28;20678;-84
2023/03/16 08:13:13;;;;;;;6.50;4.07;;;;;;;;;;4958788;28;20043;-84
2023/03/16 08:16:00;;;;;;;5.00;4.30;;;;;;;;;;4962201;28;20520;-85
2023/03/16 08:18:40;;;;;;;4.93;4.10;;;;;;;;;;4955267;28;20089;-83
2023/03/16 08:21:08;;;;;;;14.68;13.38;;;;;;;;;;4964597;28;20425;-83
2023/03/16 08:23:39;;;;;;;4.88;4.38;;;;;;;;;;4977538;28;20547;-81
2023/03/16 08:26:07;;;;;;;5.90;4.50;;;;;;;;;;4958173;28;20448;-83
2023/03/16 08:28:36;;;;;;;4.93;4.28;;;;;;;;;;4970253;28;20051;-84
2023/03/16 08:31:08;;;;;;;4.45;4.05;;;;;;;;;;4965029;28;20451;-84
2023/03/16 08:33:50;;;;;;;4.55;4.10;;;;;;;;;;4963139;28;20086;-84
2023/03/16 08:36:21;;;;;;;5.40;4.30;;;;;;;;;;4960207;28;20062;-84
2023/03/16 08:38:53;;;;;;;5.63;4.57;;;;;;;;;;4959711;28;20050;-84
2023/03/16 08:41:39;;;;;;;4.32;3.92;;;;;;;;;;4965133;28;20098;-82
2023/03/16 08:44:11;;;;;;;6.75;4.13;;;;;;;;;;4979883;28;20062;-85
2023/03/16 08:46:39;;;;;;;5.18;4.47;;;;;;;;;;4971698;28;20053;-84
2023/03/16 08:49:07;;;;;;;4.32;3.92;;;;;;;;;;4973181;28;20110;-85
2023/03/16 08:51:34;;;;;;;3.78;3.40;;;;;;;;;;4974247;28;20082;-88
2023/03/16 08:54:02;;;;;;;5.00;4.50;;;;;;;;;;4976994;28;20414;-82
2023/03/16 08:56:29;;;;;;;3.97;3.67;;;;;;;;;;4966805;28;20062;-84
2023/03/16 08:58:57;;;;;;;5.38;3.38;;;;;;;;;;4964086;28;20051;-84
2023/03/16 09:01:25;;;;;;;4.97;3.97;;;;;;;;;;4962789;28;20043;-83
2023/03/16 09:03:53;;;;;;;3.65;3.33;;;;;;;;;;4967075;28;20051;-84
2023/03/16 09:06:21;;;;;;;3.60;3.30;;;;;;;;;;4963084;28;20066;-83
2023/03/16 09:08:48;;;;;;;3.97;3.55;;;;;;;;;;4965481;28;20046;-84
2023/03/16 09:11:17;;;;;;;3.50;3.20;;;;;;;;;;4967091;28;20039;-85
2023/03/16 09:13:46;;;;;;;13.57;7.30;;;;;;;;;;4963990;28;20043;-84
2023/03/16 09:16:14;;;;;;;3.25;3.05;;;;;;;;;;4963527;28;20047;-81
2023/03/16 09:18:42;;;;;;;3.50;3.20;;;;;;;;;;4966093;28;20050;-83
2023/03/16 09:21:12;;;;;;;9.32;3.33;;;;;;;;;;4964768;28;20039;-84
2023/03/16 09:23:41;;;;;;;2.95;2.63;;;;;;;;;;4968802;28;20102;-84
2023/03/16 09:26:11;;;;;;;4.75;3.00;;;;;;;;;;4962669;28;20043;-84
2023/03/16 09:28:40;;;;;;;5.30;4.90;;;;;;;;;;4964949;28;20044;-84
2023/03/16 09:31:09;;;;;;;3.38;3.08;;;;;;;;;;4963312;28;20517;-84
2023/03/16 09:33:36;;;;;;;2.88;2.50;;;;;;;;;;4984480;28;20050;-83
2023/03/16 09:36:06;;;;;;;2.42;2.33;;;;;;;;;;4962683;28;20051;-83
2023/03/16 09:38:34;;;;;;;3.70;2.67;;;;;;;;;;4968594;28;20057;-84
2023/03/16 09:41:03;;;;;;;2.90;2.70;;;;;;;;;;4965622;28;20129;-83
2023/03/16 09:43:36;;;;;;;5.35;2.70;;;;;;;;;;4965735;28;20439;-84
2023/03/16 09:46:22;;;;;;;2.50;2.30;;;;;;;;;;4966594;28;20055;-84
2023/03/16 09:48:50;;;;;;;2.60;2.40;;;;;;;;;;4962700;28;20046;-82
2023/03/16 09:51:37;;;;;;;2.35;2.25;;;;;;;;;;4962041;28;20039;-83
2023/03/16 09:54:14;;;;;;;2.13;2.00;;;;;;;;;;4967007;28;20508;-85
2023/03/16 09:59:49;;;;;;;2.03;1.90;;;;;;;;;;4961906;28;20063;-84
2023/03/16 10:02:49;;;;;;;2.65;2.20;;;;;;;;;;4962673;28;20066;-85
2023/03/16 10:05:37;;;;;;;2.40;2.20;;;;;;;;;;4962856;28;20051;-84
2023/03/16 10:08:17;;;;;;;2.47;2.08;;;;;;;;;;4959822;28;20043;-84
2023/03/16 10:11:05;;;;;;;2.65;2.10;;;;;;;;;;4961342;28;20075;-84
2023/03/16 10:16:44;;;;;;;2.33;2.13;;;;;;;;;;4978071;28;20043;-84
2023/03/16 10:19:22;;;;;;;10.68;9.77;;;;;;;;;;4974517;28;20059;-87
2023/03/16 10:21:50;;;;;;;1.83;1.73;;;;;;;;;;4975158;28;20078;-85
2023/03/16 10:24:24;;;;;;;3.33;3.03;;;;;;;;;;4969463;28;20039;-84
2023/03/16 10:26:58;;;;;;;1.92;1.83;;;;;;;;;;4978442;28;20091;-84
2023/03/16 10:29:29;;;;;;;25.73;23.75;;;;;;;;;;4975094;28;20043;-84
2023/03/16 10:32:02;;;;;;;2.03;1.77;;;;;;;;;;4975587;28;20035;-84
2023/03/16 10:34:29;;;;;;;2.45;2.25;;;;;;;;;;4967598;28;20556;-83
2023/03/16 10:36:57;;;;;;;47.03;30.65;;;;;;;;;;4959640;28;20054;-83
2023/03/16 10:39:25;;;;;;;2.33;1.90;;;;;;;;;;4959547;28;20141;-83
2023/03/16 10:41:56;;;;;;;2.72;1.60;;;;;;;;;;4961052;28;20054;-83
2023/03/16 10:44:25;;;;;;;2.22;1.52;;;;;;;;;;4977670;28;20086;-84
2023/03/16 10:47:00;;;;;;;1.90;1.73;;;;;;;;;;4961260;28;20042;-83
2023/03/16 10:49:29;;;;;;;2.80;1.70;;;;;;;;;;4959397;28;20412;-84
2023/03/16 10:52:41;;;;;;;2.95;2.75;;;;;;;;;;4999225;23;20077;-86
2023/03/16 11:00:39;;;;;;;25.50;22.83;;;;;;;;;;5012381;28;20060;-85
2023/03/16 11:03:27;;;;;;;20.25;18.88;;;;;;;;;;4991787;28;20053;-77
2023/03/16 11:05:59;;;;;;;4.63;1.70;;;;;;;;;;4985944;28;20053;-79
2023/03/16 11:08:27;;;;;;;18.20;16.48;;;;;;;;;;4985523;28;20042;-77
2023/03/16 11:11:01;;;;;;;1.55;1.20;;;;;;;;;;4985007;28;20046;-77
2023/03/16 11:13:33;;;;;;;131.05;116.78;;;;;;;;;;4958162;28;20129;-77
2023/03/16 11:16:01;;;;;;;;;;;;;;;;;;4985871;28;20050;-78
2023/03/16 11:18:34;;;;;;;2.10;2.00;;;;;;;;;;4984863;28;20682;-77
2023/03/16 11:21:06;;;;;;;2.60;1.42;;;;;;;;;;4985391;28;20077;-77
2023/03/16 11:23:34;;;;;;;;;;;;;;;;;;4986198;28;20050;-77
2023/03/16 11:26:04;;;;;;;44.28;41.00;;;;;;;;;;4985954;28;19921;-77
2023/03/16 11:28:37;;;;;;;153.10;137.55;;;;;;;;;;4985582;28;20030;-76
2023/03/16 11:31:20;;;;;;;66.22;60.95;;;;;;;;;;4985905;28;20054;-80
2023/03/16 11:33:48;;;;;;;27.27;24.98;;;;;;;;;;4984095;28;20504;-77
2023/03/16 11:36:26;;;;;;;40.83;36.90;;;;;;;;;;4984961;28;20064;-79
2023/03/16 11:39:24;;;;;;;1.60;1.50;;;;;;;;;;4984528;28;20130;-77
2023/03/16 11:41:57;;;;;;;1.75;1.27;;;;;;;;;;4891021;28;20420;-77
2023/03/16 11:44:30;;;;;;;72.32;66.03;;;;;;;;;;4984716;28;20046;-78
2023/03/16 11:47:13;;;;;;;1.95;1.50;;;;;;;;;;4985669;28;20390;-76
2023/03/16 11:50:07;;;;;;;4.07;3.78;;;;;;;;;;4984640;28;20061;-78
2023/03/16 11:52:34;;;;;;;29.67;27.23;;;;;;;;;;4979963;28;20046;-79
2023/03/16 11:55:16;;;;;;;72.53;65.20;;;;;;;;;;4982828;28;20126;-78
2023/03/16 11:57:43;;;;;;;1.65;1.42;;;;;;;;;;4985284;28;20046;-79
2023/03/16 12:00:35;;;;;;;4.03;3.78;;;;;;;;;;4969045;28;20053;-78
2023/03/16 12:03:23;;;;;;;7.97;6.35;;;;;;;;;;4986113;28;20421;-80
2023/03/16 12:05:54;;;;;;;133.55;121.65;;;;;;;;;;5005394;28;20084;-80
2023/03/16 12:08:24;;;;;;;17.95;16.83;;;;;;;;;;5006946;28;20054;-79
2023/03/16 12:11:03;;;;;;;139.00;126.00;;;;;;;;;;4992708;28;20042;-80
2023/03/16 12:13:40;;;;;;;113.18;101.03;;;;;;;;;;4988476;28;20062;-80
2023/03/16 12:16:18;;;;;;;1.85;1.40;;;;;;;;;;4988347;28;20049;-77
2023/03/16 12:18:49;;;;;;;10.68;9.77;;;;;;;;;;4989326;28;20473;-77
2023/03/16 12:21:27;;;;;;;1.88;1.77;;;;;;;;;;4988083;28;20129;-77
2023/03/16 12:23:57;;;;;;;31.25;29.05;;;;;;;;;;4988682;28;20042;-77
2023/03/16 12:26:28;;;;;;;9.43;8.82;;;;;;;;;;4987400;28;20821;-77
2023/03/16 12:28:56;;;;;;;;;;;;;;;;;;4988516;28;20038;-77
2023/03/16 12:31:33;;;;;;;8.05;7.53;;;;;;;;;;4970010;28;20810;-78
2023/03/16 12:34:16;;;;;;;2.15;1.73;;;;;;;;;;4987763;28;20038;-79
2023/03/16 12:36:46;;;;;;;19.58;18.38;;;;;;;;;;4987773;28;20055;-77
2023/03/16 12:39:44;;;;;;;9.65;9.05;;;;;;;;;;4986854;28;20079;-79
2023/03/16 12:42:24;;;;;;;1.40;1.30;;;;;;;;;;4965804;28;20085;-77
2023/03/16 12:44:56;;;;;;;59.92;55.75;;;;;;;;;;4989310;28;20487;-77
2023/03/16 12:47:30;;;;;;;83.28;76.10;;;;;;;;;;4987489;28;20132;-79
2023/03/16 12:50:08;;;;;;;2.88;2.60;;;;;;;;;;4988709;28;20156;-79
2023/03/16 12:52:39;;;;;;;1.52;1.42;;;;;;;;;;4987257;28;20042;-78
2023/03/16 12:55:12;;;;;;;1.42;1.38;;;;;;;;;;4985034;28;20081;-76
2023/03/16 12:57:40;;;;;;;81.93;67.63;;;;;;;;;;4988036;28;20093;-77
2023/03/16 13:00:09;;;;;;;5.57;1.10;;;;;;;;;;4987962;28;20125;-77
2023/03/16 13:02:38;;;;;;;47.25;42.28;;;;;;;;;;4987808;28;20419;-77
2023/03/16 13:05:14;;;;;;;3.20;3.00;;;;;;;;;;4987662;28;20416;-77
2023/03/16 13:07:49;;;;;;;8.63;8.10;;;;;;;;;;4988131;28;20042;-76
2023/03/16 13:10:19;;;;;;;111.55;99.18;;;;;;;;;;4987597;28;20057;-77
2023/03/16 13:12:47;;;;;;;0.95;0.95;;;;;;;;;;4987591;28;20100;-79
2023/03/16 13:15:16;;;;;;;0.90;0.90;;;;;;;;;;4984346;28;20092;-77
2023/03/16 13:17:47;;;;;;;4.70;1.25;;;;;;;;;;4982288;28;20038;-78
2023/03/16 13:20:25;;;;;;;120.32;105.30;;;;;;;;;;4987120;28;20397;-77
2023/03/16 13:23:09;;;;;;;19.77;18.23;;;;;;;;;;4988283;28;20050;-78
2023/03/16 13:25:41;;;;;;;5.15;4.70;;;;;;;;;;4987461;28;20053;-76
2023/03/16 13:28:16;;;;;;;32.15;29.13;;;;;;;;;;4987268;28;20081;-77
2023/03/16 13:30:46;;;;;;;1.90;1.80;;;;;;;;;;4987260;28;20054;-80
2023/03/16 13:33:19;;;;;;;15.63;14.45;;;;;;;;;;4986411;28;20236;-80
2023/03/16 13:35:48;;;;;;;2.65;1.02;;;;;;;;;;4984157;28;20129;-76
2023/03/16 13:38:17;;;;;;;37.42;34.75;;;;;;;;;;4982820;28;20175;-80
2023/03/16 13:40:52;;;;;;;8.85;8.32;;;;;;;;;;4984315;28;20428;-79
2023/03/16 13:43:22;;;;;;;68.93;63.13;;;;;;;;;;4986301;28;20050;-76
2023/03/16 13:45:50;;;;;;;32.72;30.55;;;;;;;;;;4987550;28;20157;-77
2023/03/16 13:48:18;;;;;;;5.25;4.72;;;;;;;;;;4987124;28;20531;-78
2023/03/16 13:50:50;;;;;;;54.10;49.67;;;;;;;;;;4989430;28;20038;-78
2023/03/16 13:53:29;;;;;;;37.17;34.75;;;;;;;;;;4989389;28;20129;-79
2023/03/16 13:55:58;;;;;;;8.70;8.20;;;;;;;;;;4988168;28;20601;-77
2023/03/16 13:58:30;;;;;;;4.28;4.10;;;;;;;;;;4986944;28;20184;-78
2023/03/16 14:01:02;;;;;;;16.00;14.98;;;;;;;;;;4986706;28;20412;-78
2023/03/16 14:03:31;;;;;;;3.97;3.78;;;;;;;;;;4983682;28;20101;-77
2023/03/16 14:06:00;;;;;;;10.15;9.50;;;;;;;;;;4986785;28;20078;-78
2023/03/16 14:08:28;;;;;;;27.13;25.02;;;;;;;;;;4986657;28;20124;-77
2023/03/16 14:10:57;;;;;;;32.92;30.70;;;;;;;;;;4986685;28;20061;-77
2023/03/16 14:13:28;;;;;;;2.30;2.20;;;;;;;;;;4985952;28;20038;-78
2023/03/16 14:15:57;;;;;;;20.73;19.52;;;;;;;;;;4986603;28;20737;-77
2023/03/16 14:18:30;;;;;;;4.97;4.68;;;;;;;;;;4986486;28;20145;-77
2023/03/16 14:20:58;;;;;;;69.70;64.85;;;;;;;;;;4986790;28;20105;-81
2023/03/16 14:23:28;;;;;;;117.35;108.40;;;;;;;;;;4986842;28;20050;-77
2023/03/16 14:25:55;;;;;;;4.50;4.30;;;;;;;;;;4986957;28;20092;-77
2023/03/16 14:28:33;;;;;;;65.30;59.80;;;;;;;;;;4985697;28;20047;-78
2023/03/16 14:31:09;;;;;;;5.65;5.28;;;;;;;;;;4986587;28;20512;-79
2023/03/16 14:33:40;;;;;;;77.15;70.72;;;;;;;;;;4985901;28;20039;-80
2023/03/16 14:36:16;;;;;;;26.20;23.90;;;;;;;;;;4986095;28;20042;-77
2023/03/16 14:38:47;;;;;;;20.85;19.27;;;;;;;;;;4985902;28;20535;-77
2023/03/16 14:41:18;;;;;;;1.65;1.55;;;;;;;;;;4986041;28;20082;-77
2023/03/16 14:43:50;;;;;;;20.58;19.38;;;;;;;;;;4985452;28;20038;-80
2023/03/16 14:46:31;;;;;;;6.90;6.55;;;;;;;;;;4985772;28;20066;-79
2023/03/16 14:49:06;;;;;;;57.40;52.65;;;;;;;;;;4986704;28;20064;-78
2023/03/16 14:51:37;;;;;;;164.52;152.80;;;;;;;;;;4986828;28;20046;-77
2023/03/16 14:54:20;;;;;;;106.40;97.43;;;;;;;;;;4986321;28;20080;-78
2023/03/16 14:56:51;;;;;;;26.13;24.63;;;;;;;;;;4987432;28;20042;-77
2023/03/16 14:59:19;;;;;;;57.13;53.30;;;;;;;;;;4986511;28;20105;-78
2023/03/16 15:01:48;;;;;;;14.30;13.55;;;;;;;;;;4986802;28;20068;-77
2023/03/16 15:04:18;;;;;;;27.13;25.45;;;;;;;;;;4986677;28;20042;-77
2023/03/16 15:06:46;;;;;;;180.48;166.43;;;;;;;;;;4986575;28;20069;-77
2023/03/16 15:09:26;;;;;;;19.60;18.20;;;;;;;;;;4986433;28;20038;-77
2023/03/16 15:11:54;;;;;;;84.60;79.07;;;;;;;;;;4969643;28;20259;-77
2023/03/16 15:17:12;;;;;;;16.67;15.50;;;;;;;;;;4958013;28;20043;-78
2023/03/16 15:19:40;;;;;;;86.45;80.47;;;;;;;;;;4987204;28;20162;-79
2023/03/16 15:22:11;;;;;;;20.90;19.63;;;;;;;;;;4986996;28;20054;-79